Terminal Aerodrome Forecast
Issued by NWS Missoula, MT

Current Version | Previous Version | Text Only | Print | Product List | Glossary On
Versions: 1 2 3 4 5 6 7 8 9 10 11 12 13 14 15 16 17
000
FTUS45 KMSO 301120
TAFMSO
TAF
KMSO 301120Z 3012/3112 VRB03KT P6SM BKN100
     FM301500 15009KT P6SM VCSH OVC080
     FM302200 16008KT P6SM -SHRA OVC080
     FM310500 14006KT P6SM BKN100=

USA.gov is the U.S. government's official web portal to all federal, state and local government web resources and services.